Lynxville, Wisconsin
Current Conditions -  °F | °C
As of 4:35 PM on Friday 19 Dec 2014 (Local Time) from KPDC Reporting Station
Overcast Overcast  
Wind Chill: 29°   Ceiling: 2700
Heat Index: 29°   Visibility: 10mi
Dew Point: 20°   Wind: 0mph
Humidity: 68%   Direction: NA
Pressure: 30.3"   Gusts: NA
Location:  43.25°N, 91.06°W
Report Text: KPDC 192235Z AUTO 00000KT 10SM OVC027 M01/M07 A3030 RMK AO2 T10151067
Loading
Personal Weather Stations






























Interactive Weather Map New forecast layout! Learn more

10-Day Weather Forecast

Advertisements
Track Severe Weather on mobile